Time,TemperatureF,DewpointF,PressureIn,WindDirection,WindDirectionDegrees,WindSpeedMPH,WindSpeedGustMPH,Humidity,HourlyPrecipIn,Conditions,Clouds,dailyrainin,SolarRadiationWatts/m^2,SoftwareType,DateUTC
2013-08-11 00:03:00,58.0,-99.9,-100.00,WSW,240,0.0,14.0,0,0.00,,,0.00,0.000000,,2013-08-11 07:03:00,
2013-08-11 00:39:00,58.0,-99.9,-100.00,WSW,240,0.0,14.0,0,0.00,,,0.00,0.000000,,2013-08-11 07:39:00,
2013-08-11 00:47:00,58.0,-99.9,-100.00,WSW,240,0.0,14.0,0,0.00,,,0.00,0.000000,,2013-08-11 07:47:00,
2013-08-11 00:57:00,58.0,-99.9,-100.00,WSW,240,0.0,14.0,0,0.00,,,0.00,0.000000,,2013-08-11 07:57:00,
2013-08-11 01:03:00,54.0,-99.9,-100.00,SE,141,0.0,12.0,0,0.00,,,0.00,0.000000,,2013-08-11 08:03:00,
2013-08-11 01:37:00,54.0,-99.9,-100.00,SE,141,0.0,12.0,0,0.00,,,0.00,0.000000,,2013-08-11 08:37:00,
2013-08-11 01:50:00,54.0,-99.9,-100.00,SE,141,0.0,12.0,0,0.00,,,0.00,0.000000,,2013-08-11 08:50:00,
2013-08-11 02:03:00,50.0,-99.9,-100.00,South,170,0.0,7.0,0,0.00,,,0.00,0.000000,,2013-08-11 09:03:00,
2013-08-11 02:38:00,50.0,-99.9,-100.00,South,170,0.0,7.0,0,0.00,,,0.00,0.000000,,2013-08-11 09:38:00,
2013-08-11 02:46:00,50.0,-99.9,-100.00,South,170,0.0,7.0,0,0.00,,,0.00,0.000000,,2013-08-11 09:46:00,
2013-08-11 03:02:00,50.0,-99.9,-100.00,South,170,0.0,7.0,0,0.00,,,0.00,0.000000,,2013-08-11 10:02:00,
2013-08-11 03:03:00,46.0,-99.9,-100.00,SSE,162,1.0,2.0,0,0.00,,,0.00,0.000000,,2013-08-11 10:03:00,
2013-08-11 03:38:00,46.0,-99.9,-100.00,SSE,162,1.0,2.0,0,0.00,,,0.00,0.000000,,2013-08-11 10:38:00,
2013-08-11 03:48:00,46.0,-99.9,-100.00,SSE,162,1.0,2.0,0,0.00,,,0.00,0.000000,,2013-08-11 10:48:00,
2013-08-11 03:59:00,46.0,-99.9,-100.00,SSE,162,1.0,2.0,0,0.00,,,0.00,0.000000,,2013-08-11 10:59:00,
2013-08-11 04:03:00,48.0,-99.9,-100.00,SSE,163,0.0,6.0,0,0.00,,,-99.99,0.000000,,2013-08-11 11:03:00,
2013-08-11 04:40:00,48.0,-99.9,-100.00,SSE,163,0.0,6.0,0,0.00,,,-99.99,0.000000,,2013-08-11 11:40:00,
2013-08-11 04:51:00,48.0,-99.9,-100.00,SSE,163,0.0,6.0,0,0.00,,,-99.99,0.000000,,2013-08-11 11:51:00,
2013-08-11 05:01:00,48.0,-99.9,-100.00,SSE,163,0.0,6.0,0,0.00,,,-99.99,0.000000,,2013-08-11 12:01:00,
2013-08-11 05:03:00,46.0,-99.9,-100.00,NNW,331,0.0,4.0,0,0.00,,,-99.99,0.000000,,2013-08-11 12:03:00,
2013-08-11 05:38:00,46.0,-99.9,-100.00,NNW,331,0.0,4.0,0,0.00,,,-99.99,0.000000,,2013-08-11 12:38:00,
2013-08-11 05:47:00,46.0,-99.9,-100.00,NNW,331,0.0,4.0,0,0.00,,,-99.99,0.000000,,2013-08-11 12:47:00,
2013-08-11 05:57:00,46.0,-99.9,-100.00,NNW,331,0.0,4.0,0,0.00,,,-99.99,0.000000,,2013-08-11 12:57:00,
2013-08-11 06:03:00,44.0,-99.9,-100.00,West,264,0.0,3.0,0,0.00,,,-99.99,2.000000,,2013-08-11 13:03:00,
2013-08-11 06:42:00,44.0,-99.9,-100.00,West,264,0.0,3.0,0,0.00,,,-99.99,2.000000,,2013-08-11 13:42:00,
2013-08-11 06:49:00,44.0,-99.9,-100.00,West,264,0.0,3.0,0,0.00,,,-99.99,2.000000,,2013-08-11 13:49:00,
2013-08-11 06:59:00,44.0,-99.9,-100.00,West,264,0.0,3.0,0,0.00,,,-99.99,2.000000,,2013-08-11 13:59:00,
2013-08-11 07:03:00,55.0,-99.9,-100.00,SSE,155,0.0,4.0,0,0.00,,,0.00,124.000000,,2013-08-11 14:03:00,
2013-08-11 07:38:00,55.0,-99.9,-100.00,SSE,155,0.0,4.0,0,0.00,,,0.00,124.000000,,2013-08-11 14:38:00,
2013-08-11 07:50:00,55.0,-99.9,-100.00,SSE,155,0.0,4.0,0,0.00,,,0.00,124.000000,,2013-08-11 14:50:00,
2013-08-11 07:58:00,55.0,-99.9,-100.00,SSE,155,0.0,4.0,0,0.00,,,0.00,124.000000,,2013-08-11 14:58:00,
2013-08-11 08:03:00,66.0,-99.9,-100.00,East,96,3.0,5.0,0,0.00,,,0.00,354.000000,,2013-08-11 15:03:00,
2013-08-11 08:49:00,66.0,-99.9,-100.00,East,96,3.0,5.0,0,0.00,,,0.00,354.000000,,2013-08-11 15:49:00,
2013-08-11 09:01:00,66.0,-99.9,-100.00,East,96,3.0,5.0,0,0.00,,,0.00,354.000000,,2013-08-11 16:01:00,
2013-08-11 09:48:00,75.0,-99.9,-100.00,South,189,3.0,9.0,0,0.00,,,0.00,527.000000,,2013-08-11 16:48:00,
2013-08-11 10:00:00,75.0,-99.9,-100.00,South,189,3.0,9.0,0,0.00,,,0.00,527.000000,,2013-08-11 17:00:00,
2013-08-11 10:38:00,77.0,-99.9,-100.00,NE,52,4.0,8.0,0,-99.99,,,0.00,769.000000,,2013-08-11 17:38:00,
2013-08-11 10:48:00,77.0,-99.9,-100.00,NE,52,4.0,8.0,0,-99.99,,,0.00,769.000000,,2013-08-11 17:48:00,
2013-08-11 10:59:00,77.0,-99.9,-100.00,NE,52,4.0,8.0,0,-99.99,,,0.00,769.000000,,2013-08-11 17:59:00,
2013-08-11 11:03:00,77.0,-99.9,-100.00,NNW,337,4.0,10.0,0,-99.99,,,0.00,887.000000,,2013-08-11 18:03:00,
2013-08-11 11:41:00,77.0,-99.9,-100.00,NNW,337,4.0,10.0,0,-99.99,,,0.00,887.000000,,2013-08-11 18:41:00,
2013-08-11 11:58:00,77.0,-99.9,-100.00,NNW,337,4.0,10.0,0,-99.99,,,0.00,887.000000,,2013-08-11 18:58:00,
2013-08-11 12:03:00,66.0,-99.9,-100.00,WSW,257,0.0,14.0,0,0.00,,,0.00,199.000000,,2013-08-11 19:03:00,
2013-08-11 12:53:00,66.0,-99.9,-100.00,WSW,257,0.0,14.0,0,0.00,,,0.00,199.000000,,2013-08-11 19:53:00,
2013-08-11 13:01:00,66.0,-99.9,-100.00,WSW,257,0.0,14.0,0,0.00,,,0.00,199.000000,,2013-08-11 20:01:00,
2013-08-11 14:51:00,61.0,-99.9,-100.00,East,97,10.0,33.0,0,-99.99,,,0.75,215.000000,,2013-08-11 21:51:00,
2013-08-11 14:59:00,61.0,-99.9,-100.00,East,97,10.0,33.0,0,-99.99,,,0.75,215.000000,,2013-08-11 21:59:00,
2013-08-11 15:03:00,58.0,-99.9,-100.00,East,92,7.0,18.0,0,0.07,,,0.82,153.000000,,2013-08-11 22:03:00,
2013-08-11 16:03:00,60.0,-99.9,-100.00,SW,228,0.0,13.0,0,0.00,,,0.82,213.000000,,2013-08-11 23:03:00,
2013-08-11 16:39:00,60.0,-99.9,-100.00,SW,228,0.0,13.0,0,0.00,,,0.82,213.000000,,2013-08-11 23:39:00,
2013-08-11 16:50:00,60.0,-99.9,-100.00,SW,228,0.0,13.0,0,0.00,,,0.82,213.000000,,2013-08-11 23:50:00,
2013-08-11 17:00:00,60.0,-99.9,-100.00,SW,228,0.0,13.0,0,0.00,,,0.82,213.000000,,2013-08-12 00:00:00,
2013-08-11 17:03:00,55.0,-99.9,-100.00,SW,217,1.0,9.0,0,0.28,,,1.10,59.000000,,2013-08-12 00:03:00,
2013-08-11 17:59:00,55.0,-99.9,-100.00,SW,217,1.0,9.0,0,0.28,,,1.10,59.000000,,2013-08-12 00:59:00,
2013-08-11 18:03:00,60.0,-99.9,-100.00,SSE,168,1.0,8.0,0,-99.99,,,1.13,214.000000,,2013-08-12 01:03:00,
2013-08-11 18:40:00,60.0,-99.9,-100.00,SSE,168,1.0,8.0,0,-99.99,,,1.13,214.000000,,2013-08-12 01:40:00,
2013-08-11 18:49:00,60.0,-99.9,-100.00,SSE,168,1.0,8.0,0,-99.99,,,1.13,214.000000,,2013-08-12 01:49:00,
2013-08-11 18:58:00,60.0,-99.9,-100.00,SSE,168,1.0,8.0,0,-99.99,,,1.13,214.000000,,2013-08-12 01:58:00,
2013-08-11 19:03:00,59.0,-99.9,-100.00,SE,135,6.0,9.0,0,0.00,,,1.13,68.000000,,2013-08-12 02:03:00,
2013-08-11 19:38:00,59.0,-99.9,-100.00,SE,135,6.0,9.0,0,0.00,,,1.13,68.000000,,2013-08-12 02:38:00,
2013-08-11 19:52:00,59.0,-99.9,-100.00,SE,135,6.0,9.0,0,0.00,,,1.13,68.000000,,2013-08-12 02:52:00,
2013-08-11 20:00:00,59.0,-99.9,-100.00,SE,135,6.0,9.0,0,0.00,,,1.13,68.000000,,2013-08-12 03:00:00,
2013-08-11 20:40:00,56.0,-99.9,-100.00,WSW,250,1.0,10.0,0,0.00,,,1.13,3.000000,,2013-08-12 03:40:00,
2013-08-11 21:01:00,56.0,-99.9,-100.00,WSW,250,1.0,10.0,0,0.00,,,1.13,3.000000,,2013-08-12 04:01:00,
2013-08-11 21:02:00,56.0,-99.9,-100.00,WSW,250,1.0,10.0,0,0.00,,,1.13,3.000000,,2013-08-12 04:02:00,
2013-08-11 21:33:00,51.0,-99.9,-100.00,SSW,207,1.0,12.0,0,0.00,,,-99.99,0.000000,,2013-08-12 04:33:00,
2013-08-11 21:43:00,51.0,-99.9,-100.00,SSW,207,1.0,12.0,0,0.00,,,-99.99,0.000000,,2013-08-12 04:43:00,
2013-08-11 21:53:00,51.0,-99.9,-100.00,SSW,207,1.0,12.0,0,0.00,,,-99.99,0.000000,,2013-08-12 04:53:00,
2013-08-11 22:02:00,51.0,-99.9,-100.00,SSW,207,1.0,12.0,0,0.00,,,-99.99,0.000000,,2013-08-12 05:02:00,
2013-08-11 22:32:00,49.0,-99.9,-100.00,SSW,200,2.0,6.0,0,0.00,,,1.13,0.000000,,2013-08-12 05:32:00,
2013-08-11 23:32:00,49.0,-99.9,-100.00,West,259,2.0,5.0,0,-99.99,,,1.13,0.000000,,2013-08-12 06:32:00,
2013-08-11 23:42:00,49.0,-99.9,-100.00,West,259,2.0,5.0,0,-99.99,,,1.13,0.000000,,2013-08-12 06:42:00,